Flight Briefing for CMB848

Departure Arrival
Bahrain International Airport (OBBI)
Click to view FAA NOTAMS
Naval Station Rota (LERT)
Click to view FAA NOTAMS
Departure Time Arrival Time
N/A N/A
Aircraft Distance
B757-200SF 2947nm
Departure METAR Arrival METAR
OBBI 212330Z VRB02KT CAVOK 31/22 Q1009 NOSIG LERT 212300Z 27004KT CAVOK 18/15 Q1016 NOSIG
Suggested Route
NARMI N697 KITOT SISIK UN697 MENLI L677 CVO A1 NOZ A1 METRU P868 ARLOS T340 EVLIB M871 XATOS UM871 SOTAX UN733 CDP R59 ALT MGA


View recent IFR Routes data
Notes
USTRANSCOM CONTRACT FLIGHT

Charts and Procedures

Charts for OBBI
No chart available
Charts for LERT
No chart available

Windy.com Weather Map